createdAt,value
2022-10-14T00:01:20.904Z,97219.84
2022-10-14T00:03:50.391Z,97215.72
2022-10-14T00:06:25.078Z,97219.63
2022-10-14T00:08:54.031Z,97219.56
2022-10-14T00:11:24.909Z,97217.91
2022-10-14T00:13:56.066Z,97221.41
2022-10-14T00:16:26.218Z,97215.09
2022-10-14T00:18:54.622Z,97219.47
2022-10-14T00:21:24.792Z,97228.72
2022-10-14T00:23:53.077Z,97228.06
2022-10-14T00:26:23.371Z,97225.31
2022-10-14T00:28:52.941Z,97227.41
2022-10-14T00:31:21.895Z,97225.69
2022-10-14T00:33:50.962Z,97213.69
2022-10-14T00:36:22.484Z,97219.53
2022-10-14T00:38:53.136Z,97224.75
2022-10-14T00:41:24.688Z,97222.19
2022-10-14T00:43:59.032Z,97215.94
2022-10-14T00:46:30.695Z,97220.72
2022-10-14T00:49:08.947Z,97215.78
2022-10-14T00:51:40.139Z,97223.19
2022-10-14T00:54:11.326Z,97218.16
2022-10-14T00:56:39.962Z,97209.44
2022-10-14T00:59:12.313Z,97206.28
2022-10-14T01:01:40.767Z,97212.97
2022-10-14T01:04:08.968Z,97202.59
2022-10-14T01:06:45.506Z,97200.81
2022-10-14T01:09:27.420Z,97203.13
2022-10-14T01:12:28.020Z,97202.22
2022-10-14T01:15:08.447Z,97204.66
2022-10-14T01:17:47.626Z,97205.25
2022-10-14T01:20:42.821Z,97200.53
2022-10-14T01:23:42.982Z,97193.84
2022-10-14T01:26:27.399Z,97191.25
2022-10-14T01:29:05.890Z,97195.91
2022-10-14T01:31:39.658Z,97198.22
2022-10-14T01:34:13.397Z,97196.19
2022-10-14T01:36:48.511Z,97191.28
2022-10-14T01:39:23.023Z,97196.50
2022-10-14T01:41:56.458Z,97209.31
2022-10-14T01:44:28.188Z,97197.06
2022-10-14T01:47:00.258Z,97199.47
2022-10-14T01:49:33.974Z,97197.75
2022-10-14T01:52:06.903Z,97192.59
2022-10-14T01:54:38.842Z,97186.53
2022-10-14T01:57:11.359Z,97191.28
2022-10-14T01:59:41.516Z,97195.56
2022-10-14T02:02:12.749Z,97192.22
2022-10-14T02:04:42.947Z,97189.22
2022-10-14T02:07:17.276Z,97187.06
2022-10-14T02:09:55.657Z,97196.47
2022-10-14T02:12:39.741Z,97194.41
2022-10-14T02:15:16.755Z,97192.16
2022-10-14T02:21:25.689Z,97194.78
2022-10-14T02:24:21.442Z,97192.59
2022-10-14T02:26:51.920Z,97190.97
2022-10-14T02:29:23.148Z,97194.38
2022-10-14T02:31:57.979Z,97189.03
2022-10-14T02:34:28.094Z,97184.09
2022-10-14T02:36:59.031Z,97186.19
2022-10-14T02:39:31.887Z,97192.38
2022-10-14T02:42:00.263Z,97184.44
2022-10-14T02:44:28.679Z,97190.78
2022-10-14T02:46:57.246Z,97190.19
2022-10-14T02:49:29.478Z,97193.38
2022-10-14T02:51:59.551Z,97185.91
2022-10-14T02:54:28.011Z,97188.41
2022-10-14T02:56:56.415Z,97188.78
2022-10-14T02:59:26.104Z,97192.00
2022-10-14T03:01:54.421Z,97185.88
2022-10-14T03:04:23.381Z,97190.16
2022-10-14T03:06:54.005Z,97187.50
2022-10-14T03:09:26.060Z,97181.69
2022-10-14T03:11:55.567Z,97182.88
2022-10-14T03:14:25.579Z,97165.59
2022-10-14T03:16:54.379Z,97160.38
2022-10-14T03:19:25.417Z,97163.97
2022-10-14T03:21:56.632Z,97162.78
2022-10-14T03:24:26.465Z,97162.19
2022-10-14T03:27:13.524Z,97164.81
2022-10-14T03:29:43.018Z,97167.34
2022-10-14T03:32:18.710Z,97164.81
2022-10-14T03:35:06.794Z,97165.75
2022-10-14T03:37:35.973Z,97169.22
2022-10-14T03:40:07.842Z,97170.91
2022-10-14T03:42:37.129Z,97164.88
2022-10-14T03:45:06.647Z,97181.50
2022-10-14T03:47:35.250Z,97172.97
2022-10-14T03:50:05.083Z,97176.34
2022-10-14T03:52:44.855Z,97170.28
2022-10-14T03:55:24.866Z,97176.03
2022-10-14T03:57:53.811Z,97169.25
2022-10-14T04:00:22.400Z,97181.63
2022-10-14T04:03:01.299Z,97177.66
2022-10-14T04:05:37.286Z,97169.00
2022-10-14T04:08:19.502Z,97159.81
2022-10-14T04:10:56.503Z,97163.31
2022-10-14T04:13:26.498Z,97160.16
2022-10-14T04:15:55.239Z,97149.28
2022-10-14T04:18:35.104Z,97153.00
2022-10-14T04:21:07.117Z,97150.09
2022-10-14T04:23:37.093Z,97145.63
2022-10-14T04:26:14.941Z,97144.50
2022-10-14T04:28:45.127Z,97145.38
2022-10-14T04:31:29.112Z,97142.31
2022-10-14T04:34:02.504Z,97141.97
2022-10-14T04:36:38.714Z,97138.16
2022-10-14T04:39:20.408Z,97136.34
2022-10-14T04:41:52.164Z,97123.19
2022-10-14T04:44:22.584Z,97129.03
2022-10-14T04:46:54.882Z,97126.06
2022-10-14T04:49:26.421Z,97118.06
2022-10-14T04:52:04.066Z,97128.88
2022-10-14T04:54:41.610Z,97128.47
2022-10-14T04:57:11.436Z,97133.25
2022-10-14T04:59:40.854Z,97123.94
2022-10-14T05:02:44.455Z,97117.88
2022-10-14T05:05:14.991Z,97114.66
2022-10-14T05:07:45.364Z,97127.00
2022-10-14T05:10:28.933Z,97125.72
2022-10-14T05:12:59.074Z,97118.75
2022-10-14T05:15:31.635Z,97112.03
2022-10-14T05:18:13.618Z,97124.31
2022-10-14T05:20:56.293Z,97110.75
2022-10-14T05:23:26.262Z,97112.03
2022-10-14T05:25:55.971Z,97111.72
2022-10-14T05:28:26.508Z,97104.25
2022-10-14T05:30:56.783Z,97106.63
2022-10-14T05:33:25.544Z,97104.78
2022-10-14T05:35:59.065Z,97097.13
2022-10-14T05:38:32.743Z,97105.88
2022-10-14T05:41:01.068Z,97109.41
2022-10-14T05:43:32.609Z,97108.41
2022-10-14T05:46:02.529Z,97101.72
2022-10-14T05:48:35.300Z,97105.59
2022-10-14T05:51:03.828Z,97110.53
2022-10-14T05:53:35.836Z,97110.91
2022-10-14T05:56:11.088Z,97115.13
2022-10-14T05:58:42.907Z,97112.34
2022-10-14T06:01:12.594Z,97108.16
2022-10-14T06:03:43.175Z,97109.56
2022-10-14T06:06:14.415Z,97113.66
2022-10-14T06:08:43.384Z,97116.63
2022-10-14T06:11:11.991Z,97120.41
2022-10-14T06:13:40.855Z,97122.00
2022-10-14T06:16:12.150Z,97120.44
2022-10-14T06:18:40.653Z,97127.75
2022-10-14T06:21:09.198Z,97125.19
2022-10-14T06:23:37.645Z,97123.38
2022-10-14T06:26:07.582Z,97113.03
2022-10-14T06:28:36.217Z,97114.16
2022-10-14T06:31:32.435Z,97112.75
2022-10-14T06:34:01.173Z,97114.59
2022-10-14T06:36:29.551Z,97118.75
2022-10-14T06:38:57.828Z,97119.97
2022-10-14T06:41:26.958Z,97117.22
2022-10-14T06:43:55.330Z,97120.59
2022-10-14T06:46:25.361Z,97121.97
2022-10-14T06:48:55.081Z,97120.13
2022-10-14T06:51:23.457Z,97120.06
2022-10-14T06:53:51.894Z,97122.72
2022-10-14T06:56:20.216Z,97120.41
2022-10-14T06:58:49.096Z,97122.88
2022-10-14T07:01:17.469Z,97134.13
2022-10-14T07:03:50.565Z,97125.38
2022-10-14T07:06:22.645Z,97120.81
2022-10-14T07:08:51.170Z,97129.63
2022-10-14T07:11:19.535Z,97125.06
2022-10-14T07:13:47.814Z,97123.28
2022-10-14T07:16:16.432Z,97134.44
2022-10-14T07:18:44.887Z,97130.03
2022-10-14T07:21:13.268Z,97134.03
2022-10-14T07:23:43.278Z,97134.75
2022-10-14T07:26:11.474Z,97133.44
2022-10-14T07:28:39.950Z,97131.81
2022-10-14T07:31:13.296Z,97128.34
2022-10-14T07:33:41.993Z,97129.69
2022-10-14T07:36:15.076Z,97131.00
2022-10-14T07:38:48.286Z,97128.69
2022-10-14T07:41:21.780Z,97135.78
2022-10-14T07:43:51.997Z,97134.66
2022-10-14T07:46:29.087Z,97140.28
2022-10-14T07:48:58.066Z,97132.59
2022-10-14T07:51:27.412Z,97135.53
2022-10-14T07:53:58.631Z,97135.59
2022-10-14T07:56:27.598Z,97138.94
2022-10-14T07:58:56.048Z,97144.75
2022-10-14T08:01:24.814Z,97138.31
2022-10-14T08:03:53.651Z,97141.22
2022-10-14T08:06:22.003Z,97144.75
2022-10-14T08:08:50.765Z,97141.59
2022-10-14T08:11:24.212Z,97145.66
2022-10-14T08:13:53.223Z,97143.16
2022-10-14T08:16:23.264Z,97143.94
2022-10-14T08:18:52.151Z,97145.63
2022-10-14T08:21:22.185Z,97151.91
2022-10-14T08:23:50.740Z,97145.34
2022-10-14T08:26:25.388Z,97136.53
2022-10-14T08:28:53.807Z,97145.44
2022-10-14T08:31:22.704Z,97144.50
2022-10-14T08:33:51.554Z,97144.81
2022-10-14T08:36:21.282Z,97145.31
2022-10-14T08:38:49.984Z,97147.03
2022-10-14T08:41:35.763Z,97155.31
2022-10-14T08:44:14.560Z,97148.88
2022-10-14T08:46:51.216Z,97145.03
2022-10-14T08:49:29.267Z,97131.72
2022-10-14T08:52:02.283Z,97133.91
2022-10-14T08:54:38.033Z,97130.00
2022-10-14T08:57:14.824Z,97125.44
2022-10-14T08:59:43.464Z,97136.03
2022-10-14T09:02:25.380Z,97134.09
2022-10-14T09:04:54.014Z,97129.50
2022-10-14T09:07:22.889Z,97143.72
2022-10-14T09:09:54.373Z,97147.22
2022-10-14T09:12:27.958Z,97141.25
2022-10-14T09:15:05.501Z,97146.94
2022-10-14T09:17:38.703Z,97145.84
2022-10-14T09:20:19.526Z,97149.38
2022-10-14T09:22:58.390Z,97143.06
2022-10-14T09:25:27.192Z,97146.81
2022-10-14T09:27:57.158Z,97148.13
2022-10-14T09:30:25.682Z,97151.66
2022-10-14T09:32:56.096Z,97145.41
2022-10-14T09:35:27.118Z,97147.44
2022-10-14T09:37:55.461Z,97149.72
2022-10-14T09:40:30.962Z,97151.66
2022-10-14T09:43:05.337Z,97149.91
2022-10-14T09:45:51.523Z,97146.69
2022-10-14T09:48:32.444Z,97138.94
2022-10-14T09:51:03.182Z,97149.47
2022-10-14T09:53:33.879Z,97149.84
2022-10-14T09:56:04.194Z,97144.66
2022-10-14T09:58:40.868Z,97149.09
2022-10-14T10:01:16.631Z,97149.25
2022-10-14T10:03:46.175Z,97142.81
2022-10-14T10:06:17.109Z,97152.59
2022-10-14T10:08:57.319Z,97138.88
2022-10-14T10:11:30.658Z,97135.72
2022-10-14T10:14:16.137Z,97142.13
2022-10-14T10:16:44.740Z,97137.50
2022-10-14T10:19:28.476Z,97126.81
2022-10-14T10:22:16.912Z,97124.47
2022-10-14T10:24:46.122Z,97116.56
2022-10-14T10:27:22.277Z,97111.09
2022-10-14T10:29:52.486Z,97108.03
2022-10-14T10:32:31.408Z,97106.38
2022-10-14T10:35:20.977Z,97095.41
2022-10-14T10:38:06.860Z,97093.91
2022-10-14T10:40:40.109Z,97097.06
2022-10-14T10:43:36.484Z,97097.78
2022-10-14T10:46:30.303Z,97086.81
2022-10-14T10:49:07.280Z,97085.97
2022-10-14T10:51:41.710Z,97085.47
2022-10-14T10:54:25.359Z,97089.25
2022-10-14T10:56:57.743Z,97086.59
2022-10-14T10:59:38.332Z,97076.81
2022-10-14T11:02:38.297Z,97065.91
2022-10-14T11:05:13.623Z,97076.50
2022-10-14T11:08:11.082Z,97079.88
2022-10-14T11:11:08.261Z,97072.53
2022-10-14T11:13:48.320Z,97064.66
2022-10-14T11:16:26.661Z,97067.78
2022-10-14T11:19:07.844Z,97070.16
2022-10-14T11:21:46.914Z,97077.31
2022-10-14T11:24:26.635Z,97062.94
2022-10-14T11:27:05.452Z,97065.00
2022-10-14T11:30:09.170Z,97060.72
2022-10-14T11:32:48.768Z,97061.69
2022-10-14T11:38:25.298Z,97053.66
2022-10-14T11:41:02.779Z,97048.66
2022-10-14T11:43:43.076Z,97050.94
2022-10-14T11:46:13.901Z,97047.84
2022-10-14T11:48:47.328Z,97040.13
2022-10-14T11:51:22.491Z,97048.97
2022-10-14T11:54:01.015Z,97047.75
2022-10-14T11:56:46.873Z,97048.47
2022-10-14T11:59:31.906Z,97049.66
2022-10-14T12:02:27.375Z,97045.38
2022-10-14T12:05:04.003Z,97047.41
2022-10-14T12:07:40.521Z,97038.78
2022-10-14T12:10:21.192Z,97052.38
2022-10-14T12:12:52.558Z,97045.34
2022-10-14T12:15:24.495Z,97049.56
2022-10-14T12:17:55.278Z,97051.81
2022-10-14T12:20:33.536Z,97046.50
2022-10-14T12:23:04.835Z,97053.00
2022-10-14T12:25:44.779Z,97052.66
2022-10-14T12:28:16.270Z,97050.00
2022-10-14T12:31:35.987Z,97050.94
2022-10-14T12:34:38.689Z,97040.06
2022-10-14T12:37:46.473Z,97042.72
2022-10-14T12:40:26.401Z,97037.34
2022-10-14T12:43:19.499Z,97027.19
2022-10-14T12:45:58.128Z,97019.53
2022-10-14T12:48:29.009Z,97027.09
2022-10-14T12:51:09.021Z,97024.34
2022-10-14T12:53:40.711Z,97026.84
2022-10-14T12:56:11.546Z,97025.56
2022-10-14T12:58:54.018Z,97022.72
2022-10-14T13:01:22.932Z,97021.13
2022-10-14T13:03:56.356Z,97017.03
2022-10-14T13:06:36.811Z,97024.16
2022-10-14T13:09:20.281Z,97025.44
2022-10-14T13:12:28.886Z,97017.13
2022-10-14T13:14:59.398Z,97016.47
2022-10-14T13:17:43.903Z,97020.66
2022-10-14T13:20:53.887Z,97017.22
2022-10-14T13:23:32.964Z,97020.53
2022-10-14T13:26:12.606Z,97010.41
2022-10-14T13:28:50.102Z,97009.31
2022-10-14T13:31:26.626Z,97001.09
2022-10-14T13:34:02.798Z,97012.06
2022-10-14T13:36:38.436Z,97002.50
2022-10-14T13:39:07.054Z,96988.31
2022-10-14T13:41:35.543Z,96997.81
2022-10-14T13:44:05.626Z,96998.00
2022-10-14T13:46:38.837Z,96989.75
2022-10-14T13:51:53.071Z,96986.59
2022-10-14T13:54:23.604Z,96983.75
2022-10-14T13:57:28.684Z,96976.84
2022-10-14T14:00:37.246Z,96975.34
2022-10-14T14:02:47.979Z,96972.81
2022-10-14T14:05:26.789Z,96968.38
2022-10-14T14:11:14.970Z,96972.13
2022-10-14T14:13:54.477Z,96966.22
2022-10-14T14:16:29.282Z,96962.38
2022-10-14T14:19:10.539Z,96959.81
2022-10-14T14:21:39.447Z,96963.34
2022-10-14T14:24:18.296Z,96968.72
2022-10-14T14:26:56.194Z,96960.41
2022-10-14T14:29:29.516Z,96960.16
2022-10-14T14:32:06.700Z,96957.59
2022-10-14T14:34:39.635Z,96962.22
2022-10-14T14:37:40.231Z,96964.34
2022-10-14T14:40:08.652Z,96971.22
2022-10-14T14:42:40.764Z,96965.41
2022-10-14T14:45:17.102Z,96962.56
2022-10-14T14:47:47.900Z,96962.78
2022-10-14T14:50:30.150Z,96945.63
2022-10-14T14:53:04.026Z,96951.72
2022-10-14T14:55:45.123Z,96950.28
2022-10-14T14:58:24.017Z,96946.75
2022-10-14T15:00:54.777Z,96951.63
2022-10-14T15:03:28.049Z,96949.03
2022-10-14T15:06:00.203Z,96944.31
2022-10-14T15:08:30.971Z,96941.22
2022-10-14T15:11:00.484Z,96934.31
2022-10-14T15:13:45.658Z,96923.38
2022-10-14T15:16:14.323Z,96933.88
2022-10-14T15:18:44.449Z,96921.78
2022-10-14T15:21:19.235Z,96929.50
2022-10-14T15:24:03.333Z,96933.53
2022-10-14T15:26:35.804Z,96927.41
2022-10-14T15:29:16.173Z,96924.31
2022-10-14T15:31:46.984Z,96922.19
2022-10-14T15:34:20.710Z,96919.53
2022-10-14T15:36:52.274Z,96918.78
2022-10-14T15:39:21.594Z,96920.53
2022-10-14T15:41:50.660Z,96926.34
2022-10-14T15:44:19.100Z,96919.88
2022-10-14T15:47:05.635Z,96919.31
2022-10-14T15:49:40.275Z,96917.94
2022-10-14T15:52:15.402Z,96921.28
2022-10-14T15:54:45.878Z,96911.75
2022-10-14T15:57:16.888Z,96915.69
2022-10-14T15:59:49.047Z,96924.56
2022-10-14T16:02:21.619Z,96919.63
2022-10-14T16:05:20.859Z,96916.59
2022-10-14T16:07:41.176Z,96916.81
2022-10-14T16:10:13.075Z,96919.63
2022-10-14T16:12:42.218Z,96917.34
2022-10-14T16:15:23.603Z,96921.00
2022-10-14T16:17:53.202Z,96918.13
2022-10-14T16:20:23.744Z,96910.06
2022-10-14T16:22:52.161Z,96910.34
2022-10-14T16:25:25.243Z,96906.81
2022-10-14T16:27:53.525Z,96913.00
2022-10-14T16:30:22.484Z,96910.09
2022-10-14T16:32:51.476Z,96915.81
2022-10-14T16:35:20.152Z,96909.44
2022-10-14T16:37:50.308Z,96909.06
2022-10-14T16:40:18.588Z,96913.34
2022-10-14T16:42:46.840Z,96914.09
2022-10-14T16:45:15.070Z,96907.00
2022-10-14T16:47:43.442Z,96914.63
2022-10-14T16:50:12.800Z,96907.22
2022-10-14T16:53:00.852Z,96907.22
2022-10-14T16:55:33.410Z,96905.38
2022-10-14T16:58:01.856Z,96904.88
2022-10-14T17:00:30.246Z,96912.03
2022-10-14T17:02:58.667Z,96907.03
2022-10-14T17:05:27.104Z,96911.38
2022-10-14T17:07:55.464Z,96903.66
2022-10-14T17:10:24.689Z,96906.53
2022-10-14T17:12:55.501Z,96900.88
2022-10-14T17:15:24.916Z,96900.63
2022-10-14T17:17:54.275Z,96901.75
2022-10-14T17:20:22.907Z,96898.91
2022-10-14T17:22:51.364Z,96899.38
2022-10-14T17:25:20.104Z,96901.66
2022-10-14T17:27:49.425Z,96906.91
2022-10-14T17:30:19.638Z,96900.56
2022-10-14T17:32:48.187Z,96899.44
2022-10-14T17:35:17.017Z,96903.09
2022-10-14T17:37:48.238Z,96911.00
2022-10-14T17:40:16.778Z,96907.44
2022-10-14T17:42:45.184Z,96911.84
2022-10-14T17:45:13.654Z,96904.75
2022-10-14T17:47:43.633Z,96908.31
2022-10-14T17:50:12.732Z,96906.81
2022-10-14T17:52:41.164Z,96905.44
2022-10-14T17:55:10.524Z,96907.00
2022-10-14T17:57:39.541Z,96901.03
2022-10-14T18:00:09.289Z,96895.41
2022-10-14T18:02:40.320Z,96899.41
2022-10-14T18:05:10.955Z,96898.47
2022-10-14T18:07:39.595Z,96888.72
2022-10-14T18:10:10.199Z,96893.34
2022-10-14T18:12:39.714Z,96895.41
2022-10-14T18:15:09.542Z,96896.84
2022-10-14T18:17:39.520Z,96898.47
2022-10-14T18:20:08.788Z,96891.94
2022-10-14T18:22:38.945Z,96894.13
2022-10-14T18:25:08.563Z,96893.03
2022-10-14T18:27:37.504Z,96900.69
2022-10-14T18:30:07.478Z,96896.47
2022-10-14T18:32:37.078Z,96890.31
2022-10-14T18:35:06.741Z,96888.00
2022-10-14T18:37:35.251Z,96889.53
2022-10-14T18:40:05.558Z,96887.06
2022-10-14T18:42:34.101Z,96884.16
2022-10-14T18:45:02.577Z,96889.16
2022-10-14T18:47:31.343Z,96884.69
2022-10-14T18:50:00.409Z,96884.44
2022-10-14T18:52:30.038Z,96878.19
2022-10-14T18:54:59.060Z,96868.00
2022-10-14T18:57:28.844Z,96864.16
2022-10-14T18:59:58.269Z,96867.09
2022-10-14T19:02:26.634Z,96868.06
2022-10-14T19:04:56.106Z,96875.69
2022-10-14T19:07:24.573Z,96866.91
2022-10-14T19:09:55.588Z,96879.31
2022-10-14T19:12:44.719Z,96883.00
2022-10-14T19:15:14.409Z,96882.84
2022-10-14T19:17:43.738Z,96878.16
2022-10-14T19:20:12.394Z,96872.09
2022-10-14T19:22:45.017Z,96882.84
2022-10-14T19:25:13.680Z,96883.28
2022-10-14T19:27:42.233Z,96872.03
2022-10-14T19:30:11.834Z,96867.31
2022-10-14T19:32:42.181Z,96857.22
2022-10-14T19:35:10.968Z,96865.06
2022-10-14T19:37:39.391Z,96857.69
2022-10-14T19:40:08.910Z,96846.06
2022-10-14T19:42:37.601Z,96855.78
2022-10-14T19:45:07.548Z,96855.38
2022-10-14T19:47:35.996Z,96849.59
2022-10-14T19:50:07.057Z,96849.25
2022-10-14T19:52:35.685Z,96847.38
2022-10-14T19:55:04.220Z,96845.25
2022-10-14T19:57:32.739Z,96848.06
2022-10-14T20:00:01.415Z,96840.84
2022-10-14T20:02:32.980Z,96837.75
2022-10-14T20:05:01.351Z,96827.59
2022-10-14T20:07:31.338Z,96826.94
2022-10-14T20:10:02.587Z,96815.59
2022-10-14T20:12:31.732Z,96816.53
2022-10-14T20:15:00.239Z,96801.38
2022-10-14T20:17:28.942Z,96802.97
2022-10-14T20:19:57.489Z,96808.94
2022-10-14T20:22:26.262Z,96801.13
2022-10-14T20:24:56.132Z,96796.97
2022-10-14T20:27:24.644Z,96794.56
2022-10-14T20:29:53.603Z,96793.75
2022-10-14T20:32:22.585Z,96784.41
2022-10-14T20:34:51.182Z,96790.72
2022-10-14T20:37:22.976Z,96792.94
2022-10-14T20:39:55.611Z,96796.75
2022-10-14T20:42:24.164Z,96793.28
2022-10-14T20:44:52.635Z,96796.72
2022-10-14T20:47:21.254Z,96788.72
2022-10-14T20:49:50.167Z,96788.47
2022-10-14T20:52:18.544Z,96783.63
2022-10-14T20:54:47.036Z,96781.63
2022-10-14T20:57:16.711Z,96787.97
2022-10-14T20:59:45.160Z,96777.47
2022-10-14T21:02:17.114Z,96770.56
2022-10-14T21:04:48.713Z,96775.78
2022-10-14T21:07:18.099Z,96771.38
2022-10-14T21:09:46.609Z,96761.38
2022-10-14T21:12:16.918Z,96759.34
2022-10-14T21:14:46.102Z,96762.88
2022-10-14T21:17:14.682Z,96760.91
2022-10-14T21:19:43.498Z,96762.59
2022-10-14T21:22:12.024Z,96758.13
2022-10-14T21:24:41.388Z,96761.78
2022-10-14T21:27:10.001Z,96748.25
2022-10-14T21:29:40.052Z,96752.97
2022-10-14T21:32:09.180Z,96745.13
2022-10-14T21:34:37.792Z,96747.34
2022-10-14T21:37:06.182Z,96734.16
2022-10-14T21:39:34.494Z,96745.47
2022-10-14T21:42:02.814Z,96742.53
2022-10-14T21:44:31.221Z,96742.03
2022-10-14T21:47:01.202Z,96747.28
2022-10-14T21:49:29.796Z,96739.44
2022-10-14T21:51:58.337Z,96735.03
2022-10-14T21:54:26.998Z,96733.84
2022-10-14T21:59:25.155Z,96733.91
2022-10-14T22:01:56.580Z,96735.94
2022-10-14T22:04:27.816Z,96727.25
2022-10-14T22:06:56.394Z,96727.31
2022-10-14T22:09:25.013Z,96720.69
2022-10-14T22:11:54.415Z,96718.03
2022-10-14T22:14:22.906Z,96704.03
2022-10-14T22:16:51.430Z,96707.38
2022-10-14T22:19:19.969Z,96705.22
2022-10-14T22:21:50.346Z,96706.09
2022-10-14T22:24:18.810Z,96702.34
2022-10-14T22:26:47.218Z,96707.16
2022-10-14T22:29:16.997Z,96712.81
2022-10-14T22:31:46.057Z,96708.53
2022-10-14T22:34:16.616Z,96704.63
2022-10-14T22:36:46.174Z,96704.97
2022-10-14T22:39:18.184Z,96699.00
2022-10-14T22:41:46.957Z,96688.75
2022-10-14T22:44:15.613Z,96689.97
2022-10-14T22:46:44.102Z,96691.69
2022-10-14T22:49:12.475Z,96675.31
2022-10-14T22:51:41.632Z,96685.25
2022-10-14T22:54:10.607Z,96670.09
2022-10-14T22:56:40.580Z,96669.22
2022-10-14T22:59:11.817Z,96670.13
2022-10-14T23:01:43.340Z,96666.13
2022-10-14T23:04:12.560Z,96662.28
2022-10-14T23:06:43.766Z,96669.03
2022-10-14T23:09:12.354Z,96671.47
2022-10-14T23:11:42.624Z,96665.69
2022-10-14T23:14:11.300Z,96663.69
2022-10-14T23:16:40.214Z,96663.53
2022-10-14T23:19:09.231Z,96652.22
2022-10-14T23:21:38.756Z,96661.75
2022-10-14T23:24:09.584Z,96667.53
2022-10-14T23:26:38.693Z,96662.53
2022-10-14T23:29:11.401Z,96661.00
2022-10-14T23:31:40.907Z,96660.16
2022-10-14T23:34:12.869Z,96655.38
2022-10-14T23:36:41.844Z,96664.97
2022-10-14T23:39:10.526Z,96655.22
2022-10-14T23:41:39.188Z,96649.19
2022-10-14T23:44:08.961Z,96655.34
2022-10-14T23:46:37.271Z,96644.25
2022-10-14T23:49:21.171Z,96643.72
2022-10-14T23:51:53.787Z,96643.22
2022-10-14T23:54:22.579Z,96641.31
2022-10-14T23:56:50.966Z,96653.34
2022-10-14T23:59:21.057Z,96657.75
